Time;durP1;ratioP1;P1;durP2;ratioP2;P2;SDS_P1;SDS_P2;PMS_P1;PMS_P2;Temp;Humidity;BMP_temperature;BMP_pressure;BME280_temperature;BME280_humidity;BME280_pressure;Samples;Min_cycle;Max_cycle;Signal;HPM_P1;HPM_P2
2022/03/10 00:00:14;;;;;;;7.43;5.87;;;;;;;;;;4882837;29;20208;-73
2022/03/10 00:02:42;;;;;;;6.47;5.37;;;;;;;;;;4916272;29;20224;-73
2022/03/10 00:05:15;;;;;;;7.63;5.23;;;;;;;;;;4909388;29;20212;-73
2022/03/10 00:07:40;;;;;;;7.50;5.67;;;;;;;;;;4911912;29;20240;-73
2022/03/10 00:10:08;;;;;;;6.83;5.00;;;;;;;;;;4895047;29;20224;-74
2022/03/10 00:12:36;;;;;;;6.43;5.23;;;;;;;;;;4881970;29;20229;-73
2022/03/10 00:15:09;;;;;;;6.93;5.57;;;;;;;;;;4897020;29;20232;-73
2022/03/10 00:17:35;;;;;;;7.40;5.50;;;;;;;;;;4904099;29;20229;-73
2022/03/10 00:20:00;;;;;;;6.23;5.30;;;;;;;;;;4906857;29;20258;-73
2022/03/10 00:22:34;;;;;;;8.07;5.10;;;;;;;;;;4907724;29;20260;-72
2022/03/10 00:25:00;;;;;;;7.53;5.30;;;;;;;;;;4905490;29;20251;-73
2022/03/10 00:27:25;;;;;;;7.00;5.30;;;;;;;;;;4896431;29;20236;-73
2022/03/10 00:29:51;;;;;;;5.70;4.93;;;;;;;;;;4917056;29;20263;-72
2022/03/10 00:32:18;;;;;;;6.13;4.93;;;;;;;;;;4892010;29;20609;-72
2022/03/10 00:34:44;;;;;;;8.07;5.53;;;;;;;;;;4900809;29;20230;-73
2022/03/10 00:37:09;;;;;;;6.63;5.00;;;;;;;;;;4867909;29;20307;-73
2022/03/10 00:39:37;;;;;;;7.60;4.50;;;;;;;;;;4883228;29;20235;-72
2022/03/10 00:42:05;;;;;;;7.50;5.00;;;;;;;;;;4870516;29;20229;-74
2022/03/10 00:44:31;;;;;;;5.83;4.93;;;;;;;;;;4882605;29;20220;-73
2022/03/10 00:46:59;;;;;;;6.77;4.90;;;;;;;;;;4905546;29;20243;-73
2022/03/10 00:49:24;;;;;;;6.77;4.63;;;;;;;;;;4880823;29;20234;-73
2022/03/10 00:51:50;;;;;;;5.90;4.93;;;;;;;;;;4897452;29;20714;-73
2022/03/10 00:54:18;;;;;;;6.13;5.00;;;;;;;;;;4875522;29;20223;-73
2022/03/10 00:56:46;;;;;;;6.87;5.40;;;;;;;;;;4896848;29;20236;-73
2022/03/10 00:59:12;;;;;;;7.50;5.07;;;;;;;;;;4874288;29;20314;-73
2022/03/10 01:01:37;;;;;;;6.57;5.13;;;;;;;;;;4891199;29;20228;-73
2022/03/10 01:04:05;;;;;;;6.50;4.90;;;;;;;;;;4899100;29;20224;-73
2022/03/10 01:06:33;;;;;;;5.50;4.63;;;;;;;;;;4912414;29;20240;-72
2022/03/10 01:09:01;;;;;;;5.20;4.30;;;;;;;;;;4862508;29;20605;-72
2022/03/10 01:11:27;;;;;;;6.33;4.70;;;;;;;;;;4893815;29;20227;-73
2022/03/10 01:13:55;;;;;;;8.83;4.70;;;;;;;;;;4875055;29;20274;-73
2022/03/10 01:16:21;;;;;;;5.77;4.97;;;;;;;;;;4881286;29;20236;-73
2022/03/10 01:18:46;;;;;;;6.00;4.37;;;;;;;;;;4908087;29;20228;-73
2022/03/10 01:21:13;;;;;;;6.67;4.73;;;;;;;;;;4875529;29;20299;-73
2022/03/10 01:23:38;;;;;;;7.03;4.80;;;;;;;;;;4895956;29;20347;-74
2022/03/10 01:26:04;;;;;;;6.27;5.10;;;;;;;;;;4913232;29;20228;-73
2022/03/10 01:28:31;;;;;;;7.30;5.10;;;;;;;;;;4908949;29;20231;-73
2022/03/10 01:30:57;;;;;;;6.90;5.23;;;;;;;;;;4912847;29;20259;-73
2022/03/10 01:33:23;;;;;;;6.77;5.10;;;;;;;;;;4872725;29;20224;-72
2022/03/10 01:35:48;;;;;;;7.53;4.90;;;;;;;;;;4912960;29;20243;-72
2022/03/10 01:38:19;;;;;;;5.83;4.77;;;;;;;;;;4880045;29;20224;-72
2022/03/10 01:40:44;;;;;;;6.30;5.07;;;;;;;;;;4877139;29;20319;-72
2022/03/10 01:43:10;;;;;;;8.80;4.93;;;;;;;;;;4874024;29;20606;-73
2022/03/10 01:45:35;;;;;;;8.63;5.93;;;;;;;;;;4875393;29;20641;-72
2022/03/10 01:48:03;;;;;;;8.33;5.47;;;;;;;;;;4873892;29;20244;-73
2022/03/10 01:50:31;;;;;;;7.50;5.67;;;;;;;;;;4912670;29;20227;-72
2022/03/10 01:52:57;;;;;;;7.73;5.87;;;;;;;;;;4900354;29;20224;-72
2022/03/10 01:55:24;;;;;;;7.57;5.83;;;;;;;;;;4900263;29;20232;-72
2022/03/10 01:57:50;;;;;;;9.40;5.87;;;;;;;;;;4879610;29;20271;-74
2022/03/10 02:00:16;;;;;;;7.10;6.40;;;;;;;;;;4894515;29;20803;-72
2022/03/10 02:02:44;;;;;;;10.50;6.10;;;;;;;;;;4884451;29;20224;-73
2022/03/10 02:05:09;;;;;;;8.33;6.00;;;;;;;;;;4892091;29;20227;-72
2022/03/10 02:10:25;;;;;;;7.57;5.93;;;;;;;;;;4889000;29;20212;-73
2022/03/10 02:12:54;;;;;;;8.43;6.27;;;;;;;;;;4889504;29;20231;-73
2022/03/10 02:18:12;;;;;;;8.50;5.97;;;;;;;;;;4918579;29;20220;-72
2022/03/10 02:20:38;;;;;;;8.30;6.40;;;;;;;;;;4912263;29;20714;-74
2022/03/10 02:23:05;;;;;;;8.40;6.37;;;;;;;;;;4901534;29;20238;-72
2022/03/10 02:25:33;;;;;;;7.80;6.23;;;;;;;;;;4895326;29;20347;-72
2022/03/10 02:28:01;;;;;;;7.20;6.17;;;;;;;;;;4888672;29;20244;-73
2022/03/10 02:30:30;;;;;;;8.10;6.73;;;;;;;;;;4920178;29;20284;-72
2022/03/10 02:33:00;;;;;;;7.67;6.07;;;;;;;;;;4890209;29;20231;-72
2022/03/10 02:35:28;;;;;;;8.27;6.23;;;;;;;;;;4906340;29;20224;-72
2022/03/10 02:37:56;;;;;;;8.87;6.20;;;;;;;;;;4888526;29;20223;-72
2022/03/10 02:40:22;;;;;;;9.20;5.87;;;;;;;;;;4902389;29;20255;-72
2022/03/10 02:42:50;;;;;;;7.43;6.57;;;;;;;;;;4876947;29;20228;-73
2022/03/10 02:45:17;;;;;;;10.27;6.60;;;;;;;;;;4902340;29;20220;-74
2022/03/10 02:47:43;;;;;;;9.37;6.47;;;;;;;;;;4906825;29;20232;-72
2022/03/10 02:50:14;;;;;;;7.73;6.40;;;;;;;;;;4896541;29;20223;-72
2022/03/10 02:52:39;;;;;;;7.27;5.97;;;;;;;;;;4891279;29;20243;-72
2022/03/10 02:55:06;;;;;;;6.70;6.00;;;;;;;;;;4913889;29;20311;-73
2022/03/10 02:57:37;;;;;;;8.33;6.33;;;;;;;;;;4884593;29;20232;-73
2022/03/10 03:00:04;;;;;;;8.23;6.67;;;;;;;;;;4908719;29;20359;-73
2022/03/10 03:02:29;;;;;;;12.50;6.83;;;;;;;;;;4909590;29;20231;-74
2022/03/10 03:04:59;;;;;;;8.83;7.00;;;;;;;;;;4873894;29;20310;-73
2022/03/10 03:07:25;;;;;;;9.80;6.67;;;;;;;;;;4879085;29;20255;-73
2022/03/10 03:09:50;;;;;;;10.07;6.57;;;;;;;;;;4898890;29;20216;-74
2022/03/10 03:12:18;;;;;;;8.27;6.60;;;;;;;;;;4914762;29;20220;-73
2022/03/10 03:14:44;;;;;;;8.27;6.47;;;;;;;;;;4898094;29;20232;-73
2022/03/10 03:17:09;;;;;;;7.87;6.50;;;;;;;;;;4883051;29;20235;-71
2022/03/10 03:19:39;;;;;;;9.57;6.87;;;;;;;;;;4876485;29;20220;-73
2022/03/10 03:22:05;;;;;;;8.43;6.30;;;;;;;;;;4902920;29;20232;-73
2022/03/10 03:24:35;;;;;;;7.20;6.33;;;;;;;;;;4881771;29;20236;-73
2022/03/10 03:27:03;;;;;;;10.00;6.97;;;;;;;;;;4885168;29;20239;-73
2022/03/10 03:29:28;;;;;;;10.93;7.07;;;;;;;;;;4902773;29;20668;-72
2022/03/10 03:31:55;;;;;;;9.53;7.53;;;;;;;;;;4876851;29;20236;-73
2022/03/10 03:34:25;;;;;;;8.73;7.20;;;;;;;;;;4890844;29;20232;-72
2022/03/10 03:36:51;;;;;;;9.03;6.77;;;;;;;;;;4898953;29;20289;-72
2022/03/10 03:39:17;;;;;;;9.40;6.90;;;;;;;;;;4893221;29;20217;-72
2022/03/10 03:41:44;;;;;;;8.50;7.27;;;;;;;;;;4889051;29;20323;-74
2022/03/10 03:44:10;;;;;;;9.67;7.07;;;;;;;;;;4892091;29;20217;-72
2022/03/10 03:46:36;;;;;;;9.47;7.00;;;;;;;;;;4898834;29;20719;-72
2022/03/10 03:49:02;;;;;;;9.13;7.00;;;;;;;;;;4875094;29;20724;-71
2022/03/10 03:51:27;;;;;;;8.73;7.03;;;;;;;;;;4914846;29;20270;-72
2022/03/10 03:53:55;;;;;;;10.30;7.33;;;;;;;;;;4895741;29;20343;-72
2022/03/10 03:56:23;;;;;;;11.17;7.10;;;;;;;;;;4898136;29;20223;-71
2022/03/10 03:58:51;;;;;;;9.00;7.30;;;;;;;;;;4907122;29;20220;-74
2022/03/10 04:01:19;;;;;;;11.63;8.00;;;;;;;;;;4873755;29;20360;-73
2022/03/10 04:03:44;;;;;;;10.27;7.60;;;;;;;;;;4895135;29;20232;-73
2022/03/10 04:06:10;;;;;;;9.50;7.10;;;;;;;;;;4893592;29;20234;-73
2022/03/10 04:08:35;;;;;;;10.23;7.57;;;;;;;;;;4901640;29;20695;-73
2022/03/10 04:11:03;;;;;;;8.90;7.43;;;;;;;;;;4913644;29;20680;-72
2022/03/10 04:13:31;;;;;;;9.53;7.37;;;;;;;;;;4875659;29;20266;-73
2022/03/10 04:15:56;;;;;;;10.10;7.20;;;;;;;;;;4850368;29;20241;-72
2022/03/10 04:18:24;;;;;;;10.43;7.97;;;;;;;;;;4882641;29;20300;-72
2022/03/10 04:20:50;;;;;;;9.37;7.17;;;;;;;;;;4879161;29;20236;-72
2022/03/10 04:23:16;;;;;;;10.57;7.20;;;;;;;;;;4899631;29;20228;-73
2022/03/10 04:25:41;;;;;;;8.73;7.23;;;;;;;;;;4915756;29;20375;-72
2022/03/10 04:28:07;;;;;;;9.43;7.33;;;;;;;;;;4913271;29;20236;-73
2022/03/10 04:30:35;;;;;;;10.47;7.43;;;;;;;;;;4894835;29;20254;-72
2022/03/10 04:33:01;;;;;;;12.20;7.60;;;;;;;;;;4898596;29;20236;-73
2022/03/10 04:35:27;;;;;;;9.17;7.33;;;;;;;;;;4872998;29;20272;-72
2022/03/10 04:37:55;;;;;;;11.67;7.67;;;;;;;;;;4876478;29;20228;-73
2022/03/10 04:40:23;;;;;;;9.53;7.60;;;;;;;;;;4895963;29;20638;-72
2022/03/10 04:42:49;;;;;;;12.00;7.60;;;;;;;;;;4898056;29;20256;-72
2022/03/10 04:45:16;;;;;;;9.93;7.37;;;;;;;;;;4892889;29;20216;-72
2022/03/10 04:47:42;;;;;;;8.67;7.60;;;;;;;;;;4870744;29;20677;-72
2022/03/10 04:50:09;;;;;;;9.53;7.20;;;;;;;;;;4892311;29;20291;-72
2022/03/10 04:52:34;;;;;;;9.57;7.03;;;;;;;;;;4869661;29;20240;-72
2022/03/10 04:55:00;;;;;;;9.10;7.43;;;;;;;;;;4897183;29;20220;-72
2022/03/10 04:57:26;;;;;;;8.30;7.13;;;;;;;;;;4875530;29;20232;-72
2022/03/10 04:59:56;;;;;;;9.10;6.87;;;;;;;;;;4895864;29;20255;-71
2022/03/10 05:02:22;;;;;;;9.57;7.27;;;;;;;;;;4910982;29;20262;-71
2022/03/10 05:04:48;;;;;;;11.07;7.43;;;;;;;;;;4913635;29;20224;-72
2022/03/10 05:07:13;;;;;;;12.23;7.50;;;;;;;;;;4912709;29;20239;-73
2022/03/10 05:09:39;;;;;;;9.53;7.83;;;;;;;;;;4912619;29;20258;-71
2022/03/10 05:12:08;;;;;;;10.43;7.10;;;;;;;;;;4887458;29;20236;-72
2022/03/10 05:14:33;;;;;;;8.47;7.33;;;;;;;;;;4881445;29;20243;-72
2022/03/10 05:16:59;;;;;;;8.60;6.63;;;;;;;;;;4913881;29;20224;-72
2022/03/10 05:19:25;;;;;;;9.60;7.10;;;;;;;;;;4917060;29;20228;-72
2022/03/10 05:21:53;;;;;;;9.70;7.60;;;;;;;;;;4882944;29;20238;-71
2022/03/10 05:24:18;;;;;;;9.63;7.20;;;;;;;;;;4914015;29;20228;-73
2022/03/10 05:26:44;;;;;;;8.20;7.13;;;;;;;;;;4890280;29;20946;-72
2022/03/10 05:29:14;;;;;;;10.93;7.67;;;;;;;;;;4882956;29;20248;-72
2022/03/10 05:31:40;;;;;;;8.83;7.20;;;;;;;;;;4913213;29;20227;-73
2022/03/10 05:34:07;;;;;;;8.70;6.90;;;;;;;;;;4879088;29;20228;-72
2022/03/10 05:36:34;;;;;;;9.67;7.27;;;;;;;;;;4897868;29;20236;-72
2022/03/10 05:39:00;;;;;;;10.30;7.37;;;;;;;;;;4881870;29;20276;-72
2022/03/10 05:41:28;;;;;;;10.30;7.40;;;;;;;;;;4893888;29;20303;-72
2022/03/10 05:43:53;;;;;;;8.90;7.47;;;;;;;;;;4876864;29;20232;-72
2022/03/10 05:46:21;;;;;;;9.67;7.40;;;;;;;;;;4894831;29;20228;-72
2022/03/10 05:48:46;;;;;;;9.57;7.40;;;;;;;;;;4897448;29;20331;-72
2022/03/10 05:51:14;;;;;;;10.23;7.77;;;;;;;;;;4913588;29;20255;-73
2022/03/10 05:53:40;;;;;;;9.87;7.27;;;;;;;;;;4914607;29;20243;-73
2022/03/10 05:56:06;;;;;;;10.20;7.93;;;;;;;;;;4914721;29;20224;-72
2022/03/10 05:58:32;;;;;;;10.13;7.23;;;;;;;;;;4866467;29;20224;-73
2022/03/10 06:00:57;;;;;;;12.13;7.73;;;;;;;;;;4912292;29;20719;-73
2022/03/10 06:03:23;;;;;;;10.83;7.50;;;;;;;;;;4891464;29;20621;-72
2022/03/10 06:05:51;;;;;;;11.43;7.70;;;;;;;;;;4912028;29;20239;-72
2022/03/10 06:08:17;;;;;;;8.47;6.97;;;;;;;;;;4917640;29;20242;-72
2022/03/10 06:10:43;;;;;;;9.37;7.00;;;;;;;;;;4878410;29;20740;-73
2022/03/10 06:13:08;;;;;;;11.03;7.10;;;;;;;;;;4893728;29;20228;-72
2022/03/10 06:15:34;;;;;;;8.43;7.23;;;;;;;;;;4914433;29;20311;-73
2022/03/10 06:18:02;;;;;;;10.10;7.37;;;;;;;;;;4885117;29;20220;-72
2022/03/10 06:20:33;;;;;;;12.03;7.33;;;;;;;;;;4883196;29;20232;-73
2022/03/10 06:23:00;;;;;;;10.23;7.70;;;;;;;;;;4881526;29;20224;-72
2022/03/10 06:25:28;;;;;;;8.33;6.83;;;;;;;;;;4896863;29;20224;-74
2022/03/10 06:27:54;;;;;;;9.27;6.57;;;;;;;;;;4902553;29;20679;-73
2022/03/10 06:30:20;;;;;;;9.83;7.30;;;;;;;;;;4876714;29;20235;-73
2022/03/10 06:32:45;;;;;;;8.93;7.50;;;;;;;;;;4915885;29;20236;-73
2022/03/10 06:35:13;;;;;;;9.93;7.43;;;;;;;;;;4859541;29;20228;-72
2022/03/10 06:37:42;;;;;;;8.87;7.20;;;;;;;;;;4897401;29;20240;-73
2022/03/10 06:40:10;;;;;;;17.07;11.73;;;;;;;;;;4900038;29;20295;-73
2022/03/10 06:42:36;;;;;;;10.73;7.93;;;;;;;;;;4899302;29;20779;-74
2022/03/10 06:45:01;;;;;;;9.63;8.03;;;;;;;;;;4915444;29;20283;-74
2022/03/10 06:47:27;;;;;;;10.63;7.03;;;;;;;;;;4898211;29;20658;-73
2022/03/10 06:49:55;;;;;;;8.47;6.83;;;;;;;;;;4873905;29;20307;-72
2022/03/10 06:52:20;;;;;;;9.33;6.43;;;;;;;;;;4915312;29;20224;-73
2022/03/10 06:54:48;;;;;;;9.70;7.03;;;;;;;;;;4889453;29;20255;-73
2022/03/10 06:57:18;;;;;;;9.07;7.17;;;;;;;;;;4909032;29;20238;-74
2022/03/10 06:59:44;;;;;;;9.20;6.40;;;;;;;;;;4903275;29;20636;-74
2022/03/10 07:02:09;;;;;;;8.90;7.10;;;;;;;;;;4915500;29;20216;-72
2022/03/10 07:04:39;;;;;;;9.13;7.17;;;;;;;;;;4883659;29;20319;-74
2022/03/10 07:07:05;;;;;;;9.07;7.10;;;;;;;;;;4899611;29;20711;-73
2022/03/10 07:09:30;;;;;;;8.07;7.10;;;;;;;;;;4902924;29;20231;-74
2022/03/10 07:11:58;;;;;;;8.03;6.80;;;;;;;;;;4882649;29;20227;-75
2022/03/10 07:14:27;;;;;;;9.23;6.87;;;;;;;;;;4915772;29;20752;-74
2022/03/10 07:16:52;;;;;;;8.93;6.80;;;;;;;;;;4904663;29;20732;-74
2022/03/10 07:19:22;;;;;;;8.93;7.07;;;;;;;;;;4898598;29;20316;-74
2022/03/10 07:21:48;;;;;;;9.30;7.17;;;;;;;;;;4912134;29;20320;-73
2022/03/10 07:24:18;;;;;;;9.33;6.93;;;;;;;;;;4891038;29;20224;-73
2022/03/10 07:26:44;;;;;;;8.13;6.60;;;;;;;;;;4908191;29;20323;-73
2022/03/10 07:29:12;;;;;;;8.20;7.17;;;;;;;;;;4898215;29;20230;-74
2022/03/10 07:31:40;;;;;;;8.67;6.80;;;;;;;;;;4884378;29;20228;-75
2022/03/10 07:34:06;;;;;;;9.60;6.73;;;;;;;;;;4896090;29;20225;-72
2022/03/10 07:36:32;;;;;;;8.83;6.53;;;;;;;;;;4903069;29;20235;-74
2022/03/10 07:39:00;;;;;;;8.30;6.70;;;;;;;;;;4905836;29;20224;-74
2022/03/10 07:41:28;;;;;;;8.73;6.77;;;;;;;;;;4914787;29;20490;-73
2022/03/10 07:43:57;;;;;;;8.93;6.90;;;;;;;;;;4874338;29;20224;-73
2022/03/10 07:46:25;;;;;;;7.40;6.60;;;;;;;;;;4892856;29;20248;-74
2022/03/10 07:48:51;;;;;;;8.40;6.43;;;;;;;;;;4901793;29;20239;-74
2022/03/10 07:51:17;;;;;;;9.67;6.60;;;;;;;;;;4898863;29;20727;-73
2022/03/10 07:53:43;;;;;;;8.23;6.43;;;;;;;;;;4890416;29;20688;-74
2022/03/10 07:56:09;;;;;;;9.37;6.70;;;;;;;;;;4878292;29;20255;-74
2022/03/10 07:58:34;;;;;;;6.80;6.10;;;;;;;;;;4873822;29;20236;-74
2022/03/10 08:01:00;;;;;;;7.30;6.10;;;;;;;;;;4914442;29;20238;-74
2022/03/10 08:03:29;;;;;;;7.33;5.73;;;;;;;;;;4872113;29;20226;-73
2022/03/10 08:05:55;;;;;;;7.67;6.67;;;;;;;;;;4897574;29;20238;-72
2022/03/10 08:08:22;;;;;;;7.33;5.93;;;;;;;;;;4913673;29;20220;-74
2022/03/10 08:10:50;;;;;;;8.03;6.00;;;;;;;;;;4892203;29;20236;-74
2022/03/10 08:13:15;;;;;;;8.63;5.90;;;;;;;;;;4899736;29;20225;-74
2022/03/10 08:15:43;;;;;;;8.80;6.10;;;;;;;;;;4882633;29;20316;-73
2022/03/10 08:18:09;;;;;;;7.57;5.87;;;;;;;;;;4896896;29;20224;-74
2022/03/10 08:20:34;;;;;;;8.43;6.00;;;;;;;;;;4876258;29;20272;-73
2022/03/10 08:23:00;;;;;;;7.73;6.27;;;;;;;;;;4897119;29;20641;-73
2022/03/10 08:25:28;;;;;;;8.43;5.97;;;;;;;;;;4903384;29;20329;-74
2022/03/10 08:27:54;;;;;;;8.13;6.17;;;;;;;;;;4887758;29;20386;-74
2022/03/10 08:30:19;;;;;;;7.90;5.97;;;;;;;;;;4912653;29;20618;-74
2022/03/10 08:32:45;;;;;;;8.23;5.90;;;;;;;;;;4881577;29;20744;-73
2022/03/10 08:35:11;;;;;;;6.67;5.80;;;;;;;;;;4901546;29;20228;-73
2022/03/10 08:37:39;;;;;;;7.70;6.03;;;;;;;;;;4873159;29;20245;-73
2022/03/10 08:40:05;;;;;;;7.77;6.17;;;;;;;;;;4913572;29;20220;-73
2022/03/10 08:42:33;;;;;;;7.47;6.10;;;;;;;;;;4898008;29;20310;-73
2022/03/10 08:44:59;;;;;;;8.43;5.87;;;;;;;;;;4892784;29;20367;-74
2022/03/10 08:47:32;;;;;;;8.07;5.83;;;;;;;;;;4894471;29;20580;-73
2022/03/10 08:50:00;;;;;;;7.03;5.90;;;;;;;;;;4896652;29;20232;-73
2022/03/10 08:52:28;;;;;;;6.73;5.73;;;;;;;;;;4911698;29;20274;-74
2022/03/10 08:54:56;;;;;;;8.37;5.80;;;;;;;;;;4907542;29;20256;-73
2022/03/10 08:57:22;;;;;;;9.60;5.90;;;;;;;;;;4913336;29;20255;-74
2022/03/10 08:59:47;;;;;;;7.50;5.97;;;;;;;;;;4897862;29;20262;-73
2022/03/10 09:02:15;;;;;;;7.60;5.67;;;;;;;;;;4892936;29;20589;-74
2022/03/10 09:04:43;;;;;;;7.17;5.43;;;;;;;;;;4910903;29;20728;-74
2022/03/10 09:07:09;;;;;;;7.00;5.63;;;;;;;;;;4887446;29;20235;-73
2022/03/10 09:09:34;;;;;;;7.00;5.97;;;;;;;;;;4874182;29;20228;-73
2022/03/10 09:12:00;;;;;;;7.93;6.20;;;;;;;;;;4898660;29;20232;-74
2022/03/10 09:14:28;;;;;;;7.97;5.93;;;;;;;;;;4883923;29;20230;-74
2022/03/10 09:16:54;;;;;;;8.03;6.50;;;;;;;;;;4914379;29;20238;-75
2022/03/10 09:19:23;;;;;;;7.73;6.43;;;;;;;;;;4914527;29;20228;-73
2022/03/10 09:21:53;;;;;;;9.10;6.20;;;;;;;;;;4898936;29;20726;-73
2022/03/10 09:24:21;;;;;;;11.00;6.17;;;;;;;;;;4884365;29;20258;-74
2022/03/10 09:26:46;;;;;;;11.90;6.50;;;;;;;;;;4896819;29;20236;-73
2022/03/10 09:29:15;;;;;;;9.63;6.47;;;;;;;;;;4911893;29;20252;-73
2022/03/10 09:31:40;;;;;;;10.60;7.00;;;;;;;;;;4913258;29;20221;-74
2022/03/10 09:34:06;;;;;;;8.57;6.90;;;;;;;;;;4897775;29;20744;-74
2022/03/10 09:36:31;;;;;;;11.80;6.93;;;;;;;;;;4913700;29;20679;-73
2022/03/10 09:38:57;;;;;;;8.97;6.37;;;;;;;;;;4866473;29;20231;-73
2022/03/10 09:41:25;;;;;;;10.13;6.83;;;;;;;;;;4872304;29;20242;-74
2022/03/10 09:43:53;;;;;;;9.87;6.60;;;;;;;;;;4888713;29;20240;-73
2022/03/10 09:46:21;;;;;;;11.60;7.10;;;;;;;;;;4912874;29;20228;-74
2022/03/10 09:48:46;;;;;;;8.97;6.97;;;;;;;;;;4893525;29;20227;-74
2022/03/10 09:51:13;;;;;;;9.50;6.80;;;;;;;;;;4916813;29;20234;-74
2022/03/10 09:53:41;;;;;;;11.33;7.13;;;;;;;;;;4897420;29;20228;-74
2022/03/10 09:56:11;;;;;;;9.17;7.27;;;;;;;;;;4891903;29;20232;-74
2022/03/10 09:58:39;;;;;;;9.57;6.70;;;;;;;;;;4895623;29;20311;-74
2022/03/10 10:01:15;;;;;;;10.03;6.90;;;;;;;;;;4898112;29;20580;-76
2022/03/10 10:03:43;;;;;;;10.03;6.57;;;;;;;;;;4918411;29;20235;-73
2022/03/10 10:06:11;;;;;;;10.13;6.60;;;;;;;;;;4937306;29;20318;-74
2022/03/10 10:08:39;;;;;;;10.33;6.40;;;;;;;;;;4910814;29;20232;-72
2022/03/10 10:11:04;;;;;;;8.87;6.20;;;;;;;;;;4930705;29;20220;-73
2022/03/10 10:13:35;;;;;;;8.87;6.33;;;;;;;;;;4878875;29;20224;-74
2022/03/10 10:16:05;;;;;;;9.70;6.50;;;;;;;;;;4898259;29;20242;-73
2022/03/10 10:18:31;;;;;;;8.67;6.17;;;;;;;;;;4914730;29;20235;-72
2022/03/10 10:20:56;;;;;;;8.57;6.30;;;;;;;;;;4900098;29;20236;-74
2022/03/10 10:23:23;;;;;;;8.23;6.03;;;;;;;;;;4912532;29;20236;-74
2022/03/10 10:26:02;;;;;;;6.90;5.77;;;;;;;;;;4926280;29;20240;-75
2022/03/10 10:28:31;;;;;;;7.77;6.00;;;;;;;;;;4893388;29;20340;-73
2022/03/10 10:31:01;;;;;;;8.10;5.57;;;;;;;;;;4916875;29;21702;-75
2022/03/10 10:33:33;;;;;;;7.60;5.53;;;;;;;;;;4896500;29;20236;-74
2022/03/10 10:36:11;;;;;;;8.07;5.53;;;;;;;;;;4881113;29;20232;-74
2022/03/10 10:38:37;;;;;;;7.57;5.80;;;;;;;;;;4916792;29;20231;-73
2022/03/10 10:41:23;;;;;;;6.80;6.10;;;;;;;;;;4880845;29;20234;-74
2022/03/10 10:43:50;;;;;;;7.60;5.87;;;;;;;;;;4895973;29;20231;-74
2022/03/10 10:46:39;;;;;;;8.10;5.80;;;;;;;;;;4886173;29;20224;-74
2022/03/10 10:49:09;;;;;;;6.73;5.70;;;;;;;;;;4884656;29;20719;-75
2022/03/10 10:51:43;;;;;;;7.17;5.73;;;;;;;;;;4879520;29;20227;-74
2022/03/10 10:54:29;;;;;;;7.13;5.67;;;;;;;;;;4888859;29;20229;-74
2022/03/10 10:56:58;;;;;;;7.17;5.67;;;;;;;;;;4917145;29;20286;-74
2022/03/10 10:59:26;;;;;;;6.50;5.43;;;;;;;;;;4899430;29;20704;-75
2022/03/10 11:02:02;;;;;;;5.93;5.20;;;;;;;;;;4916452;29;20233;-74
2022/03/10 11:04:28;;;;;;;7.97;5.77;;;;;;;;;;4899752;29;20228;-73
2022/03/10 11:06:56;;;;;;;7.40;5.70;;;;;;;;;;4868275;29;20742;-74
2022/03/10 11:09:22;;;;;;;7.17;5.57;;;;;;;;;;4892259;29;20787;-74
2022/03/10 11:11:48;;;;;;;6.57;5.13;;;;;;;;;;4892564;29;20225;-73
2022/03/10 11:14:13;;;;;;;6.67;5.40;;;;;;;;;;4916547;29;20715;-73
2022/03/10 11:16:41;;;;;;;8.73;5.47;;;;;;;;;;4883976;29;20783;-75
2022/03/10 11:19:06;;;;;;;5.70;5.10;;;;;;;;;;4883458;29;20232;-73
2022/03/10 11:21:57;;;;;;;6.87;5.33;;;;;;;;;;4875608;29;20254;-74
2022/03/10 11:24:41;;;;;;;6.70;5.07;;;;;;;;;;4915028;29;20306;-74
2022/03/10 11:27:15;;;;;;;8.27;5.57;;;;;;;;;;4912553;29;20235;-74
2022/03/10 11:29:46;;;;;;;7.83;5.57;;;;;;;;;;4878328;29;20337;-73
2022/03/10 11:32:14;;;;;;;7.60;5.27;;;;;;;;;;4897465;29;20672;-74
2022/03/10 11:34:47;;;;;;;6.83;5.37;;;;;;;;;;4897555;29;20307;-75
2022/03/10 11:37:33;;;;;;;6.33;5.40;;;;;;;;;;4891574;29;20244;-73
2022/03/10 11:39:59;;;;;;;8.30;5.53;;;;;;;;;;4883517;29;20688;-73
2022/03/10 11:42:31;;;;;;;6.60;5.23;;;;;;;;;;4883045;29;20287;-73
2022/03/10 11:45:18;;;;;;;5.90;5.10;;;;;;;;;;4902831;29;20216;-72
2022/03/10 11:47:44;;;;;;;5.57;4.90;;;;;;;;;;4912439;29;20323;-75
2022/03/10 11:50:24;;;;;;;5.77;5.17;;;;;;;;;;4890853;29;20220;-74
2022/03/10 11:53:03;;;;;;;6.10;5.17;;;;;;;;;;4914771;29;20228;-73
2022/03/10 11:55:52;;;;;;;6.07;5.40;;;;;;;;;;4918032;29;20231;-74
2022/03/10 11:58:39;;;;;;;6.00;5.40;;;;;;;;;;4914788;29;20251;-75
2022/03/10 12:01:07;;;;;;;4.90;4.40;;;;;;;;;;4899434;29;20610;-75
2022/03/10 12:03:36;;;;;;;5.57;4.73;;;;;;;;;;4900396;29;20294;-74
2022/03/10 12:06:06;;;;;;;5.30;4.77;;;;;;;;;;4913030;29;20246;-74
2022/03/10 12:08:36;;;;;;;6.73;4.70;;;;;;;;;;4912853;29;20311;-73
2022/03/10 12:11:04;;;;;;;5.37;4.70;;;;;;;;;;4882096;29;20272;-74
2022/03/10 12:13:35;;;;;;;4.60;4.20;;;;;;;;;;4895025;29;20255;-74
2022/03/10 12:16:04;;;;;;;5.67;4.87;;;;;;;;;;4875041;29;20247;-73
2022/03/10 12:18:41;;;;;;;7.33;4.93;;;;;;;;;;4880683;29;20605;-74
2022/03/10 12:21:20;;;;;;;5.37;4.53;;;;;;;;;;4912683;29;20255;-73
2022/03/10 12:23:52;;;;;;;6.57;4.47;;;;;;;;;;4913555;29;20794;-74
2022/03/10 12:26:33;;;;;;;7.60;4.83;;;;;;;;;;4914861;29;20719;-74
2022/03/10 12:29:12;;;;;;;6.00;4.77;;;;;;;;;;4913136;29;20238;-74
2022/03/10 12:31:38;;;;;;;5.80;4.53;;;;;;;;;;4897944;29;20232;-73
2022/03/10 12:34:06;;;;;;;6.37;4.10;;;;;;;;;;4897557;29;20228;-74
2022/03/10 12:36:38;;;;;;;5.60;4.50;;;;;;;;;;4867347;29;20236;-75
2022/03/10 12:39:10;;;;;;;4.87;4.37;;;;;;;;;;4913714;29;20649;-75
2022/03/10 12:41:41;;;;;;;7.07;5.00;;;;;;;;;;4899272;29;20224;-73
2022/03/10 12:44:11;;;;;;;5.10;4.60;;;;;;;;;;4915524;29;20231;-75
2022/03/10 12:46:38;;;;;;;5.47;4.70;;;;;;;;;;4878536;29;20232;-73
2022/03/10 12:49:45;;;;;;;5.77;5.10;;;;;;;;;;4878469;29;20303;-74
2022/03/10 12:52:12;;;;;;;5.87;4.83;;;;;;;;;;4912492;29;20227;-74
2022/03/10 12:54:38;;;;;;;6.53;5.23;;;;;;;;;;4881814;29;20606;-74
2022/03/10 12:57:05;;;;;;;6.63;4.93;;;;;;;;;;4899539;29;20335;-73
2022/03/10 12:59:34;;;;;;;5.83;4.87;;;;;;;;;;4886369;29;20695;-74
2022/03/10 13:02:13;;;;;;;5.73;5.03;;;;;;;;;;4877834;29;20236;-73
2022/03/10 13:04:51;;;;;;;8.20;4.67;;;;;;;;;;4899107;29;20240;-74
2022/03/10 13:07:19;;;;;;;6.60;4.77;;;;;;;;;;4893925;29;20267;-74
2022/03/10 13:09:59;;;;;;;6.07;4.60;;;;;;;;;;4883678;29;20224;-75
2022/03/10 13:12:28;;;;;;;6.00;4.23;;;;;;;;;;4882780;29;20298;-74
2022/03/10 13:14:57;;;;;;;4.93;4.40;;;;;;;;;;4915070;29;20691;-73
2022/03/10 13:17:33;;;;;;;5.00;4.43;;;;;;;;;;4878767;29;20235;-75
2022/03/10 13:20:13;;;;;;;5.50;4.87;;;;;;;;;;4881495;29;20315;-75
2022/03/10 13:22:51;;;;;;;5.83;4.93;;;;;;;;;;4881755;29;20235;-74
2022/03/10 13:25:18;;;;;;;6.23;4.70;;;;;;;;;;4912365;29;20242;-74
2022/03/10 13:27:50;;;;;;;6.67;4.30;;;;;;;;;;4878586;29;20248;-76
2022/03/10 13:30:23;;;;;;;6.57;4.97;;;;;;;;;;4898969;29;20235;-73
2022/03/10 13:32:52;;;;;;;5.47;4.87;;;;;;;;;;4919489;29;20247;-73
2022/03/10 13:35:22;;;;;;;6.82;4.63;;;;;;;;;;4916232;29;20224;-73
2022/03/10 13:37:47;;;;;;;6.03;4.37;;;;;;;;;;4920647;29;20232;-74
2022/03/10 13:40:15;;;;;;;5.20;4.70;;;;;;;;;;4907925;29;20220;-73
2022/03/10 13:42:50;;;;;;;6.37;5.00;;;;;;;;;;4875239;29;20225;-76
2022/03/10 13:45:16;;;;;;;6.17;5.43;;;;;;;;;;4876322;29;20220;-74
2022/03/10 13:48:00;;;;;;;6.13;5.22;;;;;;;;;;4915202;29;20353;-74
2022/03/10 13:50:30;;;;;;;6.33;4.90;;;;;;;;;;4900806;29;20303;-75
2022/03/10 13:53:06;;;;;;;6.17;4.83;;;;;;;;;;4886588;29;20235;-74
2022/03/10 13:55:33;;;;;;;6.47;5.07;;;;;;;;;;4889061;29;20232;-74
2022/03/10 13:58:01;;;;;;;6.40;4.43;;;;;;;;;;4910986;29;20224;-75
2022/03/10 14:00:36;;;;;;;5.57;4.23;;;;;;;;;;4902058;29;20414;-76
2022/03/10 14:03:21;;;;;;;5.50;3.90;;;;;;;;;;4888459;29;20211;-76
2022/03/10 14:05:50;;;;;;;4.27;3.87;;;;;;;;;;4889237;29;20625;-75
2022/03/10 14:08:20;;;;;;;6.23;4.20;;;;;;;;;;4900175;29;20283;-75
2022/03/10 14:11:08;;;;;;;6.57;4.30;;;;;;;;;;4900576;29;20215;-75
2022/03/10 14:13:38;;;;;;;5.33;4.13;;;;;;;;;;4917785;29;20243;-74
2022/03/10 14:16:07;;;;;;;5.43;3.93;;;;;;;;;;4892209;29;20286;-75
2022/03/10 14:18:35;;;;;;;5.87;3.90;;;;;;;;;;4903254;29;20731;-75
2022/03/10 14:21:05;;;;;;;5.13;3.37;;;;;;;;;;4906426;29;20231;-74
2022/03/10 14:23:33;;;;;;;4.63;3.50;;;;;;;;;;4916823;29;20228;-74
2022/03/10 14:26:10;;;;;;;4.93;3.80;;;;;;;;;;4878043;29;20219;-73
2022/03/10 14:28:57;;;;;;;5.07;3.77;;;;;;;;;;4903439;29;20640;-75
2022/03/10 14:31:26;;;;;;;6.57;3.90;;;;;;;;;;4916462;29;20220;-74
2022/03/10 14:33:56;;;;;;;5.27;3.87;;;;;;;;;;4881372;29;20272;-74
2022/03/10 14:36:23;;;;;;;4.93;3.93;;;;;;;;;;4884148;29;20320;-73
2022/03/10 14:38:49;;;;;;;4.57;3.63;;;;;;;;;;4903882;29;20279;-75
2022/03/10 14:41:23;;;;;;;5.30;3.67;;;;;;;;;;4897411;29;20236;-75
2022/03/10 14:43:49;;;;;;;5.57;3.70;;;;;;;;;;4917967;29;20274;-74
2022/03/10 14:46:17;;;;;;;5.53;4.50;;;;;;;;;;4892155;29;20708;-74
2022/03/10 14:48:47;;;;;;;8.80;5.03;;;;;;;;;;4901411;29;20220;-75
2022/03/10 14:51:14;;;;;;;7.40;5.00;;;;;;;;;;4919526;29;20224;-74
2022/03/10 14:53:41;;;;;;;6.70;4.60;;;;;;;;;;4877537;29;20244;-74